Delfinopolis, Brazil
Current Conditions -  °F | °C
As of 5:00 PM on Saturday 25 Oct 2014 (Local Time) from SBUR Reporting Station
Light Rain Light Rain  
Wind Chill: 66°   Ceiling: 1200
Heat Index: 66°   Visibility: 1.8mi
Dew Point: 66°   Wind: 12mph
Humidity: 100%   Direction: 190°S
Pressure: 30"   Gusts: NA
Location:  20.34°S, 46.85°W
Report Text: SBUR 251900Z 19010KT 3000 -RA BR SCT005 BKN012 OVC070 19/19 Q1016
Loading
Personal Weather Stations






























Interactive Weather Map
Tropical Storm Tracking
New forecast layout! Learn more

10-Day Weather Forecast

Advertisements
Track Severe Weather on mobile